Time;durP1;ratioP1;P1;durP2;ratioP2;P2;SDS_P1;SDS_P2;PMS_P1;PMS_P2;Temp;Humidity;BMP_temperature;BMP_pressure;BME280_temperature;BME280_humidity;BME280_pressure;Samples;Min_cycle;Max_cycle;Signal;HPM_P1;HPM_P2
2021/04/01 00:00:45;;;;;;;13.07;5.67;;;;;;;;;;6195076;23;20172;-91
2021/04/01 00:03:50;;;;;;;16.93;5.63;;;;;;;;;;6194792;23;20196;-90
2021/04/01 00:06:54;;;;;;;12.63;6.00;;;;;;;;;;6194440;23;20176;-90
2021/04/01 00:09:59;;;;;;;12.67;5.53;;;;;;;;;;6194534;23;20651;-90
2021/04/01 00:13:03;;;;;;;13.77;5.83;;;;;;;;;;6193076;23;20557;-90
2021/04/01 00:16:08;;;;;;;16.77;5.60;;;;;;;;;;6192598;23;20195;-91
2021/04/01 00:19:13;;;;;;;17.50;6.37;;;;;;;;;;6194518;23;20195;-90
2021/04/01 00:22:17;;;;;;;21.17;6.40;;;;;;;;;;6194461;23;20613;-91
2021/04/01 00:25:22;;;;;;;16.10;6.50;;;;;;;;;;6193873;23;20180;-91
2021/04/01 00:28:27;;;;;;;15.50;6.43;;;;;;;;;;6211309;23;20191;-90
2021/04/01 00:31:36;;;;;;;16.40;6.23;;;;;;;;;;6193254;23;20176;-90
2021/04/01 00:34:41;;;;;;;17.80;6.77;;;;;;;;;;6211323;23;20192;-90
2021/04/01 00:37:45;;;;;;;19.07;6.10;;;;;;;;;;6193744;23;20223;-90
2021/04/01 00:40:49;;;;;;;17.57;6.70;;;;;;;;;;6193891;23;20167;-91
2021/04/01 00:43:54;;;;;;;13.57;6.50;;;;;;;;;;6194026;23;20179;-90
2021/04/01 00:46:59;;;;;;;20.07;6.13;;;;;;;;;;6191727;23;20167;-91
2021/04/01 00:50:05;;;;;;;15.67;6.70;;;;;;;;;;6195071;23;20195;-90
2021/04/01 00:53:11;;;;;;;19.40;7.73;;;;;;;;;;6195144;23;20175;-91
2021/04/01 00:56:16;;;;;;;15.47;6.30;;;;;;;;;;6194567;23;20172;-90
2021/04/01 00:59:21;;;;;;;15.53;6.00;;;;;;;;;;6193533;23;20254;-89
2021/04/01 01:02:27;;;;;;;18.90;6.07;;;;;;;;;;6193890;23;20171;-91
2021/04/01 01:05:32;;;;;;;17.17;6.13;;;;;;;;;;6191937;23;20227;-91
2021/04/01 01:08:36;;;;;;;18.53;6.03;;;;;;;;;;6193096;23;20262;-91
2021/04/01 01:11:41;;;;;;;19.53;5.93;;;;;;;;;;6175480;23;20167;-90
2021/04/01 01:14:45;;;;;;;15.73;6.30;;;;;;;;;;6176542;23;20244;-90
2021/04/01 01:17:51;;;;;;;14.97;6.10;;;;;;;;;;6193534;23;20183;-91
2021/04/01 01:20:57;;;;;;;17.37;5.87;;;;;;;;;;6193276;23;20176;-90
2021/04/01 01:24:03;;;;;;;15.90;6.63;;;;;;;;;;6176295;23;20172;-90
2021/04/01 01:27:09;;;;;;;15.37;6.80;;;;;;;;;;6192536;23;20210;-91
2021/04/01 01:30:15;;;;;;;12.37;5.70;;;;;;;;;;6193688;23;20299;-90
2021/04/01 01:33:21;;;;;;;14.73;6.00;;;;;;;;;;6192595;23;20168;-90
2021/04/01 01:36:25;;;;;;;26.17;6.50;;;;;;;;;;6192796;23;20163;-90
2021/04/01 01:39:29;;;;;;;12.97;5.50;;;;;;;;;;6193473;23;20172;-90
2021/04/01 01:42:35;;;;;;;13.13;6.10;;;;;;;;;;6193221;23;20211;-90
2021/04/01 01:45:40;;;;;;;16.90;6.43;;;;;;;;;;6192342;23;20171;-89
2021/04/01 01:48:45;;;;;;;11.00;5.93;;;;;;;;;;6192930;23;20195;-92
2021/04/01 01:51:49;;;;;;;15.27;5.63;;;;;;;;;;6206893;23;20196;-91
2021/04/01 01:54:54;;;;;;;15.53;5.17;;;;;;;;;;6191614;23;20676;-90
2021/04/01 01:57:59;;;;;;;15.07;6.23;;;;;;;;;;6194047;23;20151;-91
2021/04/01 02:01:05;;;;;;;16.27;5.77;;;;;;;;;;6193235;23;20160;-90
2021/04/01 02:04:10;;;;;;;19.57;5.90;;;;;;;;;;6212786;23;20152;-90
2021/04/01 02:07:15;;;;;;;15.47;6.57;;;;;;;;;;6194598;23;20172;-90
2021/04/01 02:10:19;;;;;;;16.67;6.07;;;;;;;;;;6193169;23;20171;-91
2021/04/01 02:13:25;;;;;;;15.77;6.77;;;;;;;;;;6194788;23;20156;-90
2021/04/01 02:16:29;;;;;;;14.47;6.03;;;;;;;;;;6193713;23;20175;-91
2021/04/01 02:19:34;;;;;;;15.30;5.93;;;;;;;;;;6193337;23;20239;-89
2021/04/01 02:22:39;;;;;;;15.27;6.30;;;;;;;;;;6191837;23;20576;-90
2021/04/01 02:25:44;;;;;;;17.53;6.87;;;;;;;;;;6191699;23;20306;-89
2021/04/01 02:28:49;;;;;;;15.00;6.30;;;;;;;;;;6190400;23;20195;-90
2021/04/01 02:31:54;;;;;;;17.10;6.37;;;;;;;;;;6192811;23;20176;-91
2021/04/01 02:34:58;;;;;;;20.73;6.30;;;;;;;;;;6192470;23;20178;-91
2021/04/01 02:38:03;;;;;;;16.17;6.27;;;;;;;;;;6191664;23;20552;-89
2021/04/01 02:41:07;;;;;;;18.37;6.40;;;;;;;;;;6192660;23;20522;-89
2021/04/01 02:44:12;;;;;;;15.37;7.20;;;;;;;;;;6191535;23;20171;-90
2021/04/01 02:47:17;;;;;;;15.57;6.83;;;;;;;;;;6192519;23;20179;-90
2021/04/01 02:50:21;;;;;;;16.43;6.43;;;;;;;;;;6191806;23;20191;-90
2021/04/01 02:53:26;;;;;;;12.00;6.10;;;;;;;;;;6192220;23;20171;-91
2021/04/01 02:56:30;;;;;;;19.77;7.60;;;;;;;;;;6191076;23;20171;-91
2021/04/01 02:59:36;;;;;;;24.67;11.00;;;;;;;;;;6191707;23;20171;-90
2021/04/01 03:02:42;;;;;;;24.73;7.73;;;;;;;;;;6174108;23;20507;-89
2021/04/01 03:05:48;;;;;;;14.17;6.87;;;;;;;;;;6192058;23;20168;-91
2021/04/01 03:08:52;;;;;;;18.53;7.00;;;;;;;;;;6192845;23;20243;-91
2021/04/01 03:11:57;;;;;;;14.53;6.77;;;;;;;;;;6192961;23;20578;-90
2021/04/01 03:15:02;;;;;;;29.27;7.60;;;;;;;;;;6192848;23;20662;-89
2021/04/01 03:18:07;;;;;;;20.90;7.40;;;;;;;;;;6191282;23;20168;-91
2021/04/01 03:21:11;;;;;;;23.77;7.50;;;;;;;;;;6193036;23;20244;-90
2021/04/01 03:24:17;;;;;;;19.33;7.17;;;;;;;;;;6192255;23;20223;-91
2021/04/01 03:27:22;;;;;;;22.53;8.10;;;;;;;;;;6192345;23;20175;-90
2021/04/01 03:30:27;;;;;;;20.07;7.33;;;;;;;;;;6192434;23;20511;-91
2021/04/01 03:33:33;;;;;;;27.30;7.97;;;;;;;;;;6192456;23;20219;-90
2021/04/01 03:36:37;;;;;;;20.53;7.67;;;;;;;;;;6175682;23;20216;-91
2021/04/01 03:39:41;;;;;;;17.87;7.70;;;;;;;;;;6196417;23;20172;-91
2021/04/01 03:42:46;;;;;;;18.73;7.90;;;;;;;;;;6195738;23;20199;-90
2021/04/01 03:45:51;;;;;;;18.83;7.17;;;;;;;;;;6194413;23;20167;-90
2021/04/01 03:48:55;;;;;;;23.33;6.57;;;;;;;;;;6194036;23;20242;-90
2021/04/01 03:52:00;;;;;;;21.13;7.53;;;;;;;;;;6210021;23;20171;-89
2021/04/01 03:55:09;;;;;;;22.90;7.83;;;;;;;;;;6192523;23;20188;-90
2021/04/01 04:05:14;;;;;;;19.73;7.87;;;;;;;;;;6210773;23;20188;-90
2021/04/01 04:11:44;;;;;;;19.13;8.13;;;;;;;;;;6211109;23;20216;-90
2021/04/01 04:14:51;;;;;;;28.70;9.00;;;;;;;;;;6193497;23;20239;-91
2021/04/01 04:17:57;;;;;;;23.10;8.37;;;;;;;;;;6193705;23;20167;-90
2021/04/01 04:21:04;;;;;;;23.00;7.93;;;;;;;;;;6194981;23;20179;-89
2021/04/01 04:24:10;;;;;;;17.70;8.20;;;;;;;;;;6195154;23;20216;-90
2021/04/01 04:27:28;;;;;;;22.70;8.20;;;;;;;;;;6195050;23;20232;-89
2021/04/01 04:30:32;;;;;;;21.77;8.07;;;;;;;;;;6197060;23;20168;-90
2021/04/01 04:33:38;;;;;;;23.30;7.77;;;;;;;;;;6195973;23;20170;-91
2021/04/01 04:36:42;;;;;;;15.20;7.23;;;;;;;;;;6195601;23;20627;-90
2021/04/01 04:39:47;;;;;;;15.73;6.90;;;;;;;;;;6196213;23;20682;-89
2021/04/01 04:42:51;;;;;;;17.60;7.37;;;;;;;;;;6194435;23;20560;-90
2021/04/01 04:45:56;;;;;;;17.77;7.27;;;;;;;;;;6194955;23;20180;-89
2021/04/01 04:49:01;;;;;;;20.53;7.40;;;;;;;;;;6195157;23;20244;-91
2021/04/01 04:52:06;;;;;;;18.77;8.23;;;;;;;;;;6194849;23;20632;-90
2021/04/01 04:55:12;;;;;;;28.10;7.30;;;;;;;;;;6197201;23;20164;-91
2021/04/01 04:58:21;;;;;;;16.90;7.90;;;;;;;;;;6206711;23;20171;-91
2021/04/01 05:04:55;;;;;;;17.93;8.30;;;;;;;;;;6213216;23;20291;-90
2021/04/01 05:08:00;;;;;;;17.90;7.10;;;;;;;;;;6215801;23;20232;-90
2021/04/01 05:11:07;;;;;;;20.63;7.60;;;;;;;;;;6195742;23;20213;-90
2021/04/01 05:14:12;;;;;;;19.23;7.67;;;;;;;;;;6197074;23;20235;-90
2021/04/01 05:17:22;;;;;;;18.43;7.30;;;;;;;;;;6212409;23;20183;-90
2021/04/01 05:20:29;;;;;;;14.43;6.87;;;;;;;;;;6194006;23;20168;-92
2021/04/01 05:23:39;;;;;;;19.43;7.27;;;;;;;;;;6214070;23;20180;-91
2021/04/01 05:27:07;;;;;;;16.43;6.97;;;;;;;;;;6197126;23;20191;-90
2021/04/01 05:30:11;;;;;;;14.27;6.13;;;;;;;;;;6196114;23;20172;-90
2021/04/01 05:33:19;;;;;;;26.40;7.50;;;;;;;;;;6195752;23;20296;-88
2021/04/01 05:36:27;;;;;;;16.67;6.77;;;;;;;;;;6195894;23;20180;-89
2021/04/01 05:39:34;;;;;;;21.10;7.17;;;;;;;;;;6195253;23;20175;-89
2021/04/01 05:42:39;;;;;;;15.50;7.37;;;;;;;;;;6211763;23;20236;-90
2021/04/01 05:45:47;;;;;;;19.27;7.83;;;;;;;;;;6196471;23;20193;-87
2021/04/01 05:49:03;;;;;;;19.97;7.13;;;;;;;;;;6193855;23;20246;-90
2021/04/01 06:02:39;;;;;;;20.87;6.33;;;;;;;;;;6197126;23;20169;-90
2021/04/01 06:05:45;;;;;;;21.20;7.07;;;;;;;;;;6195523;23;20168;-89
2021/04/01 06:08:53;;;;;;;17.93;6.93;;;;;;;;;;6194473;23;20223;-89
2021/04/01 06:11:58;;;;;;;14.90;6.17;;;;;;;;;;6198202;23;20176;-89
2021/04/01 06:15:08;;;;;;;13.70;6.00;;;;;;;;;;6196709;23;20172;-89
2021/04/01 06:18:14;;;;;;;14.80;6.43;;;;;;;;;;6213772;23;20175;-90
2021/04/01 06:21:22;;;;;;;27.20;11.73;;;;;;;;;;6195671;23;20184;-89
2021/04/01 06:24:29;;;;;;;13.40;6.40;;;;;;;;;;6194996;23;20274;-90
2021/04/01 06:27:38;;;;;;;46.70;7.82;;;;;;;;;;6196122;23;20171;-91
2021/04/01 06:30:46;;;;;;;17.48;6.75;;;;;;;;;;6216096;23;20176;-89
2021/04/01 06:33:54;;;;;;;27.23;7.63;;;;;;;;;;6196418;23;20535;-90
2021/04/01 06:37:00;;;;;;;19.88;7.32;;;;;;;;;;6199285;23;20199;-90
2021/04/01 06:40:07;;;;;;;17.20;6.35;;;;;;;;;;6198181;23;20163;-91
2021/04/01 06:43:21;;;;;;;16.85;6.55;;;;;;;;;;6215147;23;20168;-90
2021/04/01 06:46:30;;;;;;;15.35;6.25;;;;;;;;;;6198103;23;20175;-89
2021/04/01 06:49:56;;;;;;;14.05;6.50;;;;;;;;;;6193700;23;20236;-87
2021/04/01 06:53:02;;;;;;;15.15;6.28;;;;;;;;;;6194995;23;20215;-89
2021/04/01 06:56:15;;;;;;;14.63;6.10;;;;;;;;;;6195010;23;20240;-87
2021/04/01 06:59:28;;;;;;;16.47;6.93;;;;;;;;;;6201180;23;20168;-89
2021/04/01 07:02:37;;;;;;;14.77;6.60;;;;;;;;;;6215803;23;20188;-90
2021/04/01 07:05:48;;;;;;;21.70;7.87;;;;;;;;;;6196977;23;20160;-89
2021/04/01 07:08:55;;;;;;;20.70;6.77;;;;;;;;;;6212671;23;20625;-89
2021/04/01 07:12:09;;;;;;;14.27;6.30;;;;;;;;;;6197563;23;20180;-90
2021/04/01 07:15:18;;;;;;;16.83;7.43;;;;;;;;;;6197431;23;20236;-88
2021/04/01 07:18:29;;;;;;;16.77;7.50;;;;;;;;;;6214152;23;20215;-88
2021/04/01 20:56:58;;;;;;;18.60;4.60;;;;;;;;;;6192193;23;20212;-89
2021/04/01 21:00:02;;;;;;;19.27;5.50;;;;;;;;;;6177589;23;20176;-90
2021/04/01 21:03:08;;;;;;;19.23;5.70;;;;;;;;;;6194953;23;20551;-89
2021/04/01 21:06:12;;;;;;;20.67;5.20;;;;;;;;;;6195137;23;20215;-88
2021/04/01 21:09:17;;;;;;;12.95;4.63;;;;;;;;;;6195341;23;20187;-89
2021/04/01 21:12:22;;;;;;;14.77;4.47;;;;;;;;;;6194748;23;20172;-89
2021/04/01 21:15:28;;;;;;;11.80;4.80;;;;;;;;;;6196550;23;20176;-90
2021/04/01 21:18:33;;;;;;;15.57;4.55;;;;;;;;;;6195967;23;20176;-89
2021/04/01 21:21:38;;;;;;;13.05;5.30;;;;;;;;;;6195932;23;20191;-89
2021/04/01 21:24:43;;;;;;;12.80;4.82;;;;;;;;;;6179517;23;20175;-89
2021/04/01 21:27:49;;;;;;;15.80;5.00;;;;;;;;;;6195807;23;20264;-89
2021/04/01 21:30:55;;;;;;;20.00;5.13;;;;;;;;;;6175997;23;20539;-90
2021/04/01 21:33:59;;;;;;;11.88;4.93;;;;;;;;;;6194478;23;20212;-90
2021/04/01 21:37:04;;;;;;;13.38;4.50;;;;;;;;;;6194649;23;20222;-89
2021/04/01 21:40:09;;;;;;;15.35;4.72;;;;;;;;;;6195431;23;20171;-89
2021/04/01 21:43:15;;;;;;;21.48;5.75;;;;;;;;;;6176910;23;20223;-89
2021/04/01 21:46:20;;;;;;;12.07;5.10;;;;;;;;;;6195037;23;20679;-88
2021/04/01 21:49:24;;;;;;;20.35;5.30;;;;;;;;;;6193187;23;20202;-88
2021/04/01 21:52:29;;;;;;;14.50;5.28;;;;;;;;;;6192896;23;20213;-89
2021/04/01 21:55:34;;;;;;;15.32;5.15;;;;;;;;;;6174923;23;20191;-88
2021/04/01 21:58:39;;;;;;;16.15;5.05;;;;;;;;;;6197603;23;20265;-90
2021/04/01 22:01:45;;;;;;;17.60;5.47;;;;;;;;;;6172388;23;20243;-89
2021/04/01 22:04:49;;;;;;;14.98;4.78;;;;;;;;;;6190974;23;20176;-89
2021/04/01 22:07:55;;;;;;;14.20;5.03;;;;;;;;;;6174738;23;20698;-89
2021/04/01 22:11:01;;;;;;;24.45;7.20;;;;;;;;;;6173147;23;20172;-90
2021/04/01 22:14:06;;;;;;;18.33;5.05;;;;;;;;;;6174338;23;20232;-89
2021/04/01 22:17:10;;;;;;;18.83;5.68;;;;;;;;;;6190730;23;20191;-88
2021/04/01 22:20:15;;;;;;;12.57;5.63;;;;;;;;;;6174624;23;20168;-89
2021/04/01 22:23:21;;;;;;;13.57;4.97;;;;;;;;;;6172827;23;20180;-89
2021/04/01 22:26:25;;;;;;;19.92;5.85;;;;;;;;;;6191490;23;20188;-88
2021/04/01 22:29:31;;;;;;;16.67;5.43;;;;;;;;;;6190430;23;20667;-90
2021/04/01 22:32:35;;;;;;;22.63;5.63;;;;;;;;;;6192272;23;20195;-89
2021/04/01 22:35:41;;;;;;;18.15;6.38;;;;;;;;;;6191140;23;20515;-89
2021/04/01 22:38:46;;;;;;;17.65;5.65;;;;;;;;;;6175658;23;20175;-89
2021/04/01 22:41:51;;;;;;;18.33;6.03;;;;;;;;;;6192595;23;20176;-89
2021/04/01 22:44:56;;;;;;;14.63;5.70;;;;;;;;;;6190591;23;20236;-89
2021/04/01 22:48:01;;;;;;;11.65;5.15;;;;;;;;;;6191261;23;20192;-89
2021/04/01 22:51:05;;;;;;;14.60;5.55;;;;;;;;;;6157031;23;20168;-89
2021/04/01 22:54:10;;;;;;;15.70;5.85;;;;;;;;;;6191220;23;20550;-90
2021/04/01 22:57:15;;;;;;;15.70;5.80;;;;;;;;;;6173336;23;20234;-89
2021/04/01 23:00:23;;;;;;;13.13;5.38;;;;;;;;;;6172267;23;20216;-89
2021/04/01 23:03:28;;;;;;;11.98;4.82;;;;;;;;;;6191637;23;20180;-89
2021/04/01 23:06:32;;;;;;;21.25;5.18;;;;;;;;;;6191909;23;20228;-88
2021/04/01 23:09:37;;;;;;;12.77;5.10;;;;;;;;;;6191408;23;20215;-89
2021/04/01 23:12:42;;;;;;;13.13;5.27;;;;;;;;;;6174972;23;20232;-89
2021/04/01 23:15:49;;;;;;;19.70;5.87;;;;;;;;;;6192050;23;20176;-89
2021/04/01 23:18:53;;;;;;;15.17;5.33;;;;;;;;;;6173372;23;20275;-90
2021/04/01 23:21:58;;;;;;;17.87;5.63;;;;;;;;;;6192835;23;20194;-90
2021/04/01 23:25:02;;;;;;;15.13;5.65;;;;;;;;;;6190717;23;20168;-89
2021/04/01 23:28:07;;;;;;;20.55;5.45;;;;;;;;;;6173722;23;20168;-90
2021/04/01 23:31:12;;;;;;;18.03;5.50;;;;;;;;;;6190748;23;20164;-89
2021/04/01 23:34:19;;;;;;;15.80;6.10;;;;;;;;;;6173732;23;20192;-90
2021/04/01 23:37:23;;;;;;;13.38;5.82;;;;;;;;;;6173830;23;20172;-90
2021/04/01 23:40:29;;;;;;;21.33;6.03;;;;;;;;;;6174609;23;20167;-91
2021/04/01 23:43:33;;;;;;;13.32;6.03;;;;;;;;;;6174052;23;20172;-89
2021/04/01 23:46:38;;;;;;;18.23;5.70;;;;;;;;;;6172793;23;20219;-87
2021/04/01 23:49:43;;;;;;;17.70;6.23;;;;;;;;;;6190548;23;20179;-89
2021/04/01 23:52:48;;;;;;;13.70;5.97;;;;;;;;;;6173071;23;20219;-89
2021/04/01 23:55:53;;;;;;;17.00;5.93;;;;;;;;;;6192357;23;20230;-90
2021/04/01 23:58:57;;;;;;;16.03;6.33;;;;;;;;;;6192080;23;20176;-89
